KZR127 UAAA-UACC
Flight info
| Callsign | KZR127 |
|---|---|
| Flight time | 1h 29m |
| Altitude | 36000 |
| Route | ETEDA1J ETEDA W333 BANOS BANOS1D |
| Aircraft | A21N/M-SDE3FGHIRWY/LB1 |
Departure
| Time | 2026-04-23 16:49 |
|---|---|
| Airport | Almaty International Airport (UAAA) |
Arrival
| Time | 2026-04-23 18:19 |
|---|---|
| Airport | Nursultan Nazarbayev International Airport (UACC) |
| Time | Latitude | Longitude | Altitude | Speed | Heading |
|---|---|---|---|---|---|
| 2026-04-23 16:28 | 43.34635 | 77.01338 | 2225 ft | 0 kts | 275° |
| 2026-04-23 16:34 | 43.34635 | 77.01356 | 2225 ft | 2 kts | 266° |
| 2026-04-23 16:34 | 43.34636 | 77.01376 | 2225 ft | 2 kts | 270° |
| 2026-04-23 16:34 | 43.34636 | 77.01388 | 2225 ft | 2 kts | 270° |
| 2026-04-23 16:36 | 43.34636 | 77.01407 | 2225 ft | 2 kts | 269° |
| 2026-04-23 16:36 | 43.34636 | 77.01422 | 2224 ft | 2 kts | 270° |
| 2026-04-23 16:36 | 43.34636 | 77.01442 | 2224 ft | 1 kts | 278° |
| 2026-04-23 16:36 | 43.34634 | 77.01453 | 2224 ft | 1 kts | 296° |
| 2026-04-23 16:38 | 43.34633 | 77.01457 | 2224 ft | 1 kts | 305° |
| 2026-04-23 16:38 | 43.34623 | 77.01469 | 2224 ft | 1 kts | 336° |
| 2026-04-23 16:38 | 43.34616 | 77.01472 | 2224 ft | 1 kts | 355° |
| 2026-04-23 16:38 | 43.34611 | 77.01473 | 2224 ft | 0 kts | 347° |
| 2026-04-23 16:41 | 43.34627 | 77.01468 | 2224 ft | 4 kts | 347° |
| 2026-04-23 16:41 | 43.34662 | 77.01449 | 2223 ft | 0 kts | 334° |
| 2026-04-23 16:42 | 43.34662 | 77.01448 | 2223 ft | 0 kts | 334° |
| 2026-04-23 16:42 | 43.34685 | 77.01442 | 2222 ft | 7 kts | 3° |
| 2026-04-23 16:42 | 43.34744 | 77.01465 | 2220 ft | 11 kts | 20° |
| 2026-04-23 16:42 | 43.34809 | 77.01521 | 2219 ft | 12 kts | 67° |
| 2026-04-23 16:43 | 43.34811 | 77.01623 | 2219 ft | 12 kts | 93° |
| 2026-04-23 16:43 | 43.34808 | 77.01743 | 2219 ft | 13 kts | 92° |
| 2026-04-23 16:43 | 43.34802 | 77.01871 | 2219 ft | 13 kts | 95° |
| 2026-04-23 16:43 | 43.34794 | 77.02012 | 2219 ft | 16 kts | 94° |
| 2026-04-23 16:44 | 43.34787 | 77.02177 | 2220 ft | 17 kts | 93° |
| 2026-04-23 16:44 | 43.34780 | 77.02335 | 2223 ft | 15 kts | 94° |
| 2026-04-23 16:44 | 43.34772 | 77.02496 | 2223 ft | 18 kts | 90° |
| 2026-04-23 16:44 | 43.34824 | 77.02702 | 2222 ft | 27 kts | 57° |
| 2026-04-23 16:45 | 43.34892 | 77.02844 | 2221 ft | 27 kts | 56° |
| 2026-04-23 16:45 | 43.34938 | 77.02936 | 2221 ft | 27 kts | 56° |
| 2026-04-23 16:46 | 43.35044 | 77.03147 | 2221 ft | 25 kts | 56° |
| 2026-04-23 16:46 | 43.35141 | 77.03348 | 2222 ft | 24 kts | 58° |
| 2026-04-23 16:46 | 43.35233 | 77.03532 | 2225 ft | 22 kts | 56° |
| 2026-04-23 16:46 | 43.35318 | 77.03710 | 2226 ft | 22 kts | 58° |
| 2026-04-23 16:47 | 43.35406 | 77.03885 | 2227 ft | 23 kts | 55° |
| 2026-04-23 16:47 | 43.35506 | 77.04089 | 2229 ft | 28 kts | 54° |
| 2026-04-23 16:47 | 43.35625 | 77.04321 | 2230 ft | 30 kts | 56° |
| 2026-04-23 16:47 | 43.35746 | 77.04567 | 2231 ft | 30 kts | 56° |
| 2026-04-23 16:48 | 43.35858 | 77.04796 | 2232 ft | 28 kts | 56° |
| 2026-04-23 16:48 | 43.35941 | 77.05019 | 2233 ft | 24 kts | 86° |
| 2026-04-23 16:48 | 43.35878 | 77.05164 | 2235 ft | 16 kts | 150° |
| 2026-04-23 16:48 | 43.35791 | 77.05109 | 2236 ft | 16 kts | 233° |
| 2026-04-23 16:49 | 43.35605 | 77.04745 | 2235 ft | 81 kts | 235° |
| 2026-04-23 16:49 | 43.35167 | 77.03863 | 2230 ft | 140 kts | 235° |
| 2026-04-23 16:49 | 43.34531 | 77.02597 | 2399 ft | 173 kts | 234° |
| 2026-04-23 16:49 | 43.33876 | 77.01238 | 3047 ft | 170 kts | 237° |
| 2026-04-23 16:50 | 43.33243 | 76.99876 | 3651 ft | 175 kts | 237° |
| 2026-04-23 16:50 | 43.32587 | 76.98458 | 4218 ft | 178 kts | 238° |
| 2026-04-23 16:50 | 43.31920 | 76.96987 | 4579 ft | 187 kts | 238° |
| 2026-04-23 16:50 | 43.31219 | 76.95434 | 4889 ft | 199 kts | 243° |
| 2026-04-23 16:51 | 43.30975 | 76.93554 | 5201 ft | 208 kts | 282° |
| 2026-04-23 16:51 | 43.31718 | 76.91852 | 5523 ft | 217 kts | 322° |
| 2026-04-23 16:51 | 43.33122 | 76.90952 | 5765 ft | 235 kts | 345° |
| 2026-04-23 16:51 | 43.34749 | 76.90354 | 6101 ft | 252 kts | 345° |
| 2026-04-23 16:52 | 43.36495 | 76.89719 | 6490 ft | 266 kts | 345° |
| 2026-04-23 16:52 | 43.38315 | 76.89058 | 7115 ft | 271 kts | 345° |
| 2026-04-23 16:52 | 43.40119 | 76.88402 | 7827 ft | 273 kts | 345° |
| 2026-04-23 16:52 | 43.41956 | 76.87733 | 8568 ft | 274 kts | 345° |
| 2026-04-23 16:53 | 43.43789 | 76.87064 | 9231 ft | 277 kts | 345° |
| 2026-04-23 16:53 | 43.45665 | 76.86379 | 9838 ft | 279 kts | 345° |
| 2026-04-23 16:53 | 43.47536 | 76.85696 | 10152 ft | 280 kts | 345° |
| 2026-04-23 16:53 | 43.49421 | 76.85006 | 10202 ft | 279 kts | 344° |
| 2026-04-23 16:54 | 43.51300 | 76.84318 | 10176 ft | 278 kts | 344° |
| 2026-04-23 16:54 | 43.53153 | 76.83635 | 10188 ft | 279 kts | 345° |
| 2026-04-23 16:54 | 43.55040 | 76.82942 | 10223 ft | 278 kts | 344° |
| 2026-04-23 16:54 | 43.56907 | 76.82258 | 10213 ft | 278 kts | 344° |
| 2026-04-23 16:55 | 43.58786 | 76.81567 | 10235 ft | 279 kts | 344° |
| 2026-04-23 16:55 | 43.60652 | 76.80881 | 10217 ft | 279 kts | 344° |
| 2026-04-23 16:55 | 43.62516 | 76.80194 | 10211 ft | 278 kts | 344° |
| 2026-04-23 16:55 | 43.64405 | 76.79498 | 10211 ft | 279 kts | 343° |
| 2026-04-23 16:56 | 43.66275 | 76.78810 | 10223 ft | 279 kts | 343° |
| 2026-04-23 16:56 | 43.68158 | 76.78114 | 10207 ft | 280 kts | 343° |
| 2026-04-23 16:56 | 43.70032 | 76.77422 | 10196 ft | 280 kts | 343° |
| 2026-04-23 16:56 | 43.71906 | 76.76730 | 10185 ft | 279 kts | 343° |
| 2026-04-23 16:57 | 43.73780 | 76.76035 | 10199 ft | 280 kts | 343° |
| 2026-04-23 16:57 | 43.75668 | 76.75338 | 10203 ft | 280 kts | 343° |
| 2026-04-23 16:57 | 43.77542 | 76.74644 | 10180 ft | 280 kts | 343° |
| 2026-04-23 16:57 | 43.79422 | 76.73947 | 10163 ft | 280 kts | 343° |
| 2026-04-23 16:58 | 43.81292 | 76.73253 | 10159 ft | 280 kts | 343° |
| 2026-04-23 16:58 | 43.83181 | 76.72552 | 10179 ft | 280 kts | 343° |
| 2026-04-23 16:58 | 43.85068 | 76.71852 | 10191 ft | 280 kts | 343° |
| 2026-04-23 16:58 | 43.86942 | 76.71159 | 10200 ft | 280 kts | 343° |
| 2026-04-23 16:59 | 43.88802 | 76.70467 | 10172 ft | 279 kts | 342° |
| 2026-04-23 16:59 | 43.90684 | 76.69766 | 10186 ft | 280 kts | 343° |
| 2026-04-23 16:59 | 43.92568 | 76.69067 | 10166 ft | 280 kts | 342° |
| 2026-04-23 16:59 | 43.94471 | 76.68359 | 10127 ft | 280 kts | 342° |
| 2026-04-23 17:00 | 43.96337 | 76.67661 | 10141 ft | 280 kts | 342° |
| 2026-04-23 17:00 | 43.98231 | 76.66953 | 10130 ft | 281 kts | 342° |
| 2026-04-23 17:00 | 44.00109 | 76.66254 | 10151 ft | 280 kts | 342° |
| 2026-04-23 17:00 | 44.01993 | 76.65552 | 10137 ft | 280 kts | 342° |
| 2026-04-23 17:01 | 44.03875 | 76.64848 | 10129 ft | 280 kts | 342° |
| 2026-04-23 17:01 | 44.05756 | 76.64143 | 10130 ft | 281 kts | 342° |
| 2026-04-23 17:01 | 44.07645 | 76.63437 | 10129 ft | 281 kts | 342° |
| 2026-04-23 17:01 | 44.09534 | 76.62730 | 10129 ft | 281 kts | 342° |
| 2026-04-23 17:02 | 44.11435 | 76.62019 | 10123 ft | 281 kts | 342° |
| 2026-04-23 17:02 | 44.13300 | 76.61320 | 10120 ft | 280 kts | 342° |
| 2026-04-23 17:02 | 44.15182 | 76.60613 | 10123 ft | 281 kts | 342° |
| 2026-04-23 17:02 | 44.17092 | 76.59895 | 10120 ft | 281 kts | 342° |
| 2026-04-23 17:03 | 44.18970 | 76.59189 | 10117 ft | 281 kts | 342° |
| 2026-04-23 17:03 | 44.20853 | 76.58483 | 10115 ft | 281 kts | 342° |
| 2026-04-23 17:03 | 44.22728 | 76.57776 | 10114 ft | 281 kts | 342° |
| 2026-04-23 17:03 | 44.24630 | 76.57062 | 10116 ft | 280 kts | 342° |
| 2026-04-23 17:04 | 44.26511 | 76.56351 | 10115 ft | 281 kts | 342° |
| 2026-04-23 17:04 | 44.28381 | 76.55645 | 10113 ft | 281 kts | 342° |
| 2026-04-23 17:04 | 44.30268 | 76.54935 | 10111 ft | 281 kts | 342° |
| 2026-04-23 17:04 | 44.32154 | 76.54224 | 10112 ft | 281 kts | 342° |
| 2026-04-23 17:05 | 44.34024 | 76.53434 | 10112 ft | 280 kts | 338° |
| 2026-04-23 17:05 | 44.35840 | 76.52471 | 10113 ft | 279 kts | 335° |
| 2026-04-23 17:05 | 44.37625 | 76.51440 | 10110 ft | 279 kts | 335° |
| 2026-04-23 17:05 | 44.39431 | 76.50386 | 10108 ft | 279 kts | 335° |
| 2026-04-23 17:06 | 44.41218 | 76.49340 | 10108 ft | 279 kts | 335° |
| 2026-04-23 17:06 | 44.42998 | 76.48299 | 10106 ft | 279 kts | 335° |
| 2026-04-23 17:06 | 44.44777 | 76.47258 | 10108 ft | 279 kts | 335° |
| 2026-04-23 17:06 | 44.46575 | 76.46204 | 10109 ft | 279 kts | 335° |
| 2026-04-23 17:07 | 44.48365 | 76.45156 | 10107 ft | 279 kts | 335° |
| 2026-04-23 17:07 | 44.50159 | 76.44106 | 10107 ft | 279 kts | 335° |
| 2026-04-23 17:07 | 44.51932 | 76.43068 | 10105 ft | 279 kts | 335° |
| 2026-04-23 17:07 | 44.53713 | 76.42024 | 10103 ft | 278 kts | 335° |
| 2026-04-23 17:08 | 44.55524 | 76.40959 | 10236 ft | 285 kts | 335° |
| 2026-04-23 17:08 | 44.57408 | 76.39851 | 10627 ft | 298 kts | 335° |
| 2026-04-23 17:08 | 44.59318 | 76.38728 | 11200 ft | 303 kts | 335° |
| 2026-04-23 17:08 | 44.61280 | 76.37578 | 11869 ft | 305 kts | 334° |
| 2026-04-23 17:09 | 44.63224 | 76.36438 | 12527 ft | 307 kts | 334° |
| 2026-04-23 17:09 | 44.65189 | 76.35282 | 13149 ft | 309 kts | 334° |
| 2026-04-23 17:09 | 44.67173 | 76.34114 | 13763 ft | 311 kts | 333° |
| 2026-04-23 17:09 | 44.69166 | 76.32938 | 14323 ft | 315 kts | 333° |
| 2026-04-23 17:10 | 44.71194 | 76.31741 | 14825 ft | 321 kts | 332° |
| 2026-04-23 17:10 | 44.73262 | 76.30518 | 15326 ft | 326 kts | 332° |
| 2026-04-23 17:10 | 44.75358 | 76.29279 | 15821 ft | 331 kts | 332° |
| 2026-04-23 17:10 | 44.77498 | 76.28014 | 16301 ft | 336 kts | 332° |
| 2026-04-23 17:11 | 44.79659 | 76.26733 | 16779 ft | 341 kts | 332° |
| 2026-04-23 17:11 | 44.81871 | 76.25423 | 17234 ft | 346 kts | 331° |
| 2026-04-23 17:11 | 44.84091 | 76.24105 | 17689 ft | 351 kts | 331° |
| 2026-04-23 17:11 | 44.86358 | 76.22760 | 18152 ft | 355 kts | 331° |
| 2026-04-23 17:12 | 44.88618 | 76.21417 | 18621 ft | 359 kts | 330° |
| 2026-04-23 17:12 | 44.90934 | 76.20040 | 19117 ft | 361 kts | 330° |
| 2026-04-23 17:12 | 44.93251 | 76.18663 | 19599 ft | 364 kts | 330° |
| 2026-04-23 17:12 | 44.95601 | 76.17265 | 20068 ft | 367 kts | 330° |
| 2026-04-23 17:13 | 44.97944 | 76.15868 | 20514 ft | 370 kts | 329° |
| 2026-04-23 17:13 | 45.00318 | 76.14452 | 20966 ft | 373 kts | 329° |
| 2026-04-23 17:13 | 45.02708 | 76.13023 | 21390 ft | 376 kts | 329° |
| 2026-04-23 17:13 | 45.05145 | 76.11565 | 21826 ft | 379 kts | 329° |
| 2026-04-23 17:14 | 45.07571 | 76.10113 | 22243 ft | 382 kts | 329° |
| 2026-04-23 17:14 | 45.10018 | 76.08650 | 22659 ft | 385 kts | 329° |
| 2026-04-23 17:14 | 45.12513 | 76.07153 | 23038 ft | 388 kts | 329° |
| 2026-04-23 17:14 | 45.14999 | 76.05660 | 23434 ft | 390 kts | 328° |
| 2026-04-23 17:15 | 45.17498 | 76.04159 | 23833 ft | 393 kts | 328° |
| 2026-04-23 17:15 | 45.20013 | 76.02647 | 24194 ft | 396 kts | 328° |
| 2026-04-23 17:15 | 45.22538 | 76.01125 | 24594 ft | 397 kts | 328° |
| 2026-04-23 17:15 | 45.25079 | 75.99594 | 24978 ft | 399 kts | 328° |
| 2026-04-23 17:16 | 45.27632 | 75.98055 | 25353 ft | 401 kts | 328° |
| 2026-04-23 17:16 | 45.30213 | 75.96498 | 25714 ft | 403 kts | 328° |
| 2026-04-23 17:16 | 45.32816 | 75.94925 | 26040 ft | 406 kts | 328° |
| 2026-04-23 17:16 | 45.35410 | 75.93356 | 26373 ft | 408 kts | 328° |
| 2026-04-23 17:17 | 45.38009 | 75.91782 | 26738 ft | 409 kts | 328° |
| 2026-04-23 17:17 | 45.40626 | 75.90196 | 27046 ft | 412 kts | 328° |
| 2026-04-23 17:17 | 45.43283 | 75.88586 | 27367 ft | 414 kts | 328° |
| 2026-04-23 17:17 | 45.45930 | 75.86979 | 27688 ft | 416 kts | 328° |
| 2026-04-23 17:18 | 45.51243 | 75.83743 | 28270 ft | 420 kts | 328° |
| 2026-04-23 17:18 | 45.53932 | 75.82107 | 28606 ft | 422 kts | 328° |
| 2026-04-23 17:18 | 45.56632 | 75.80462 | 28902 ft | 424 kts | 327° |
| 2026-04-23 17:19 | 45.59346 | 75.78803 | 29195 ft | 425 kts | 327° |
| 2026-04-23 17:19 | 45.62060 | 75.77144 | 29488 ft | 427 kts | 327° |
| 2026-04-23 17:19 | 45.64801 | 75.75463 | 29769 ft | 429 kts | 327° |
| 2026-04-23 17:19 | 45.67545 | 75.73781 | 30049 ft | 431 kts | 327° |
| 2026-04-23 17:20 | 45.70306 | 75.72089 | 30338 ft | 433 kts | 327° |
| 2026-04-23 17:20 | 45.75856 | 75.68690 | 30925 ft | 435 kts | 327° |
| 2026-04-23 17:21 | 45.81433 | 75.65266 | 31442 ft | 439 kts | 327° |
| 2026-04-23 17:21 | 45.84204 | 75.63559 | 31694 ft | 440 kts | 327° |
| 2026-04-23 17:21 | 45.89852 | 75.60076 | 32228 ft | 443 kts | 327° |
| 2026-04-23 17:22 | 45.92671 | 75.58336 | 32511 ft | 443 kts | 327° |
| 2026-04-23 17:22 | 45.98347 | 75.54821 | 32982 ft | 446 kts | 327° |
| 2026-04-23 17:23 | 46.04042 | 75.51285 | 33417 ft | 449 kts | 327° |
| 2026-04-23 17:23 | 46.06908 | 75.49502 | 33618 ft | 451 kts | 327° |
| 2026-04-23 17:23 | 46.12651 | 75.45931 | 34229 ft | 448 kts | 327° |
| 2026-04-23 17:24 | 46.15476 | 75.44165 | 34438 ft | 447 kts | 327° |
| 2026-04-23 17:24 | 46.18317 | 75.42387 | 34606 ft | 448 kts | 327° |
| 2026-04-23 17:24 | 46.24039 | 75.38809 | 34916 ft | 450 kts | 327° |
| 2026-04-23 17:25 | 46.29782 | 75.35251 | 35236 ft | 451 kts | 327° |
| 2026-04-23 17:25 | 46.32673 | 75.33456 | 35437 ft | 451 kts | 327° |
| 2026-04-23 17:26 | 46.38416 | 75.29881 | 35812 ft | 451 kts | 327° |
| 2026-04-23 17:26 | 46.44166 | 75.26286 | 36009 ft | 454 kts | 327° |
| 2026-04-23 17:27 | 46.52842 | 75.20852 | 36016 ft | 454 kts | 327° |
| 2026-04-23 17:27 | 46.58638 | 75.17210 | 36016 ft | 454 kts | 327° |
| 2026-04-23 17:28 | 46.64387 | 75.13589 | 36012 ft | 453 kts | 327° |
| 2026-04-23 17:28 | 46.70165 | 75.09938 | 36009 ft | 453 kts | 327° |
| 2026-04-23 17:29 | 46.75952 | 75.06268 | 36005 ft | 455 kts | 327° |
| 2026-04-23 17:30 | 46.84651 | 75.00742 | 36003 ft | 454 kts | 327° |
| 2026-04-23 17:30 | 46.93436 | 74.95568 | 36002 ft | 458 kts | 330° |
| 2026-04-23 17:31 | 46.99403 | 74.92303 | 35997 ft | 458 kts | 331° |
| 2026-04-23 17:31 | 47.05354 | 74.89034 | 36001 ft | 457 kts | 330° |
| 2026-04-23 17:32 | 47.11303 | 74.85744 | 36003 ft | 458 kts | 331° |
| 2026-04-23 17:32 | 47.17254 | 74.82445 | 36004 ft | 459 kts | 330° |
| 2026-04-23 17:33 | 47.23182 | 74.79147 | 36006 ft | 458 kts | 331° |
| 2026-04-23 17:33 | 47.29149 | 74.75822 | 36008 ft | 458 kts | 331° |
| 2026-04-23 17:34 | 47.35090 | 74.72501 | 36010 ft | 458 kts | 331° |
| 2026-04-23 17:35 | 47.44014 | 74.67494 | 36011 ft | 458 kts | 331° |
| 2026-04-23 17:35 | 47.52921 | 74.62479 | 36009 ft | 459 kts | 331° |
| 2026-04-23 17:36 | 47.58869 | 74.59150 | 36010 ft | 459 kts | 331° |
| 2026-04-23 17:36 | 47.64852 | 74.55804 | 36009 ft | 459 kts | 332° |
| 2026-04-23 17:37 | 47.70796 | 74.52466 | 36006 ft | 459 kts | 332° |
| 2026-04-23 17:38 | 47.79719 | 74.47433 | 36008 ft | 459 kts | 332° |
| 2026-04-23 17:38 | 47.85691 | 74.44055 | 36006 ft | 459 kts | 332° |
| 2026-04-23 17:39 | 47.91654 | 74.40673 | 36005 ft | 460 kts | 332° |
| 2026-04-23 17:39 | 47.97629 | 74.37274 | 36004 ft | 459 kts | 332° |
| 2026-04-23 17:40 | 48.03553 | 74.33895 | 36006 ft | 459 kts | 331° |
| 2026-04-23 17:40 | 48.09518 | 74.30482 | 36004 ft | 458 kts | 331° |
| 2026-04-23 17:41 | 48.15458 | 74.27090 | 36004 ft | 458 kts | 331° |
| 2026-04-23 17:41 | 48.24363 | 74.22066 | 36006 ft | 458 kts | 332° |
| 2026-04-23 17:42 | 48.33311 | 74.16985 | 35996 ft | 458 kts | 332° |
| 2026-04-23 17:43 | 48.39234 | 74.13610 | 35995 ft | 458 kts | 332° |
| 2026-04-23 17:43 | 48.45189 | 74.10207 | 35999 ft | 457 kts | 332° |
| 2026-04-23 17:44 | 48.51113 | 74.06812 | 35987 ft | 457 kts | 332° |
| 2026-04-23 17:44 | 48.60003 | 74.01702 | 36001 ft | 458 kts | 332° |
| 2026-04-23 17:45 | 48.68914 | 73.96558 | 35994 ft | 457 kts | 332° |
| 2026-04-23 17:46 | 48.77798 | 73.91412 | 35992 ft | 456 kts | 332° |
| 2026-04-23 17:46 | 48.83680 | 73.87994 | 35997 ft | 456 kts | 333° |
| 2026-04-23 17:47 | 48.89595 | 73.84544 | 35997 ft | 456 kts | 333° |
| 2026-04-23 17:48 | 48.98443 | 73.79371 | 35990 ft | 456 kts | 333° |
| 2026-04-23 17:48 | 49.04364 | 73.75897 | 35995 ft | 455 kts | 333° |
| 2026-04-23 17:49 | 49.10237 | 73.72437 | 35996 ft | 455 kts | 333° |
| 2026-04-23 17:49 | 49.16137 | 73.68946 | 35994 ft | 455 kts | 333° |
| 2026-04-23 17:50 | 49.22036 | 73.65449 | 35991 ft | 456 kts | 333° |
| 2026-04-23 17:50 | 49.30861 | 73.60194 | 35992 ft | 455 kts | 333° |
| 2026-04-23 17:51 | 49.36727 | 73.56691 | 35989 ft | 455 kts | 333° |
| 2026-04-23 17:52 | 49.45562 | 73.51397 | 35986 ft | 454 kts | 333° |
| 2026-04-23 17:52 | 49.54356 | 73.46106 | 35982 ft | 454 kts | 333° |
| 2026-04-23 17:53 | 49.63109 | 73.40634 | 35983 ft | 451 kts | 329° |
| 2026-04-23 17:54 | 49.68549 | 73.36021 | 35696 ft | 445 kts | 322° |
| 2026-04-23 17:54 | 49.71089 | 73.33347 | 35518 ft | 439 kts | 318° |
| 2026-04-23 17:54 | 49.75734 | 73.27416 | 35118 ft | 430 kts | 312° |
| 2026-04-23 17:55 | 49.80070 | 73.21164 | 34262 ft | 429 kts | 311° |
| 2026-04-23 17:55 | 49.82238 | 73.18013 | 33601 ft | 432 kts | 311° |
| 2026-04-23 17:55 | 49.84432 | 73.14825 | 33007 ft | 432 kts | 312° |
| 2026-04-23 17:56 | 49.86590 | 73.11697 | 32558 ft | 428 kts | 312° |
| 2026-04-23 17:56 | 49.90896 | 73.05451 | 31650 ft | 421 kts | 312° |
| 2026-04-23 17:56 | 49.93028 | 73.02354 | 31197 ft | 417 kts | 313° |
| 2026-04-23 17:57 | 49.95128 | 72.99299 | 30743 ft | 414 kts | 313° |
| 2026-04-23 17:57 | 49.97200 | 72.96281 | 30271 ft | 410 kts | 313° |
| 2026-04-23 17:57 | 50.01292 | 72.90306 | 29370 ft | 401 kts | 313° |
| 2026-04-23 17:58 | 50.03313 | 72.87350 | 28923 ft | 397 kts | 314° |
| 2026-04-23 17:58 | 50.05312 | 72.84423 | 28489 ft | 392 kts | 314° |
| 2026-04-23 17:58 | 50.07275 | 72.81545 | 28067 ft | 388 kts | 314° |
| 2026-04-23 17:58 | 50.09209 | 72.78706 | 27650 ft | 383 kts | 314° |
| 2026-04-23 17:59 | 50.11151 | 72.75849 | 27231 ft | 379 kts | 314° |
| 2026-04-23 17:59 | 50.13044 | 72.73064 | 26826 ft | 375 kts | 314° |
| 2026-04-23 17:59 | 50.14928 | 72.70291 | 26419 ft | 371 kts | 315° |
| 2026-04-23 17:59 | 50.16786 | 72.67583 | 26017 ft | 367 kts | 317° |
| 2026-04-23 18:00 | 50.18769 | 72.65125 | 25616 ft | 365 kts | 322° |
| 2026-04-23 18:00 | 50.20905 | 72.62995 | 25150 ft | 364 kts | 328° |
| 2026-04-23 18:00 | 50.23148 | 72.61142 | 24641 ft | 362 kts | 330° |
| 2026-04-23 18:00 | 50.25367 | 72.59390 | 24239 ft | 358 kts | 331° |
| 2026-04-23 18:01 | 50.27552 | 72.57675 | 23875 ft | 352 kts | 331° |
| 2026-04-23 18:01 | 50.29719 | 72.55971 | 23502 ft | 346 kts | 331° |
| 2026-04-23 18:01 | 50.31846 | 72.54295 | 23104 ft | 342 kts | 331° |
| 2026-04-23 18:01 | 50.33947 | 72.52636 | 22692 ft | 338 kts | 330° |
| 2026-04-23 18:02 | 50.36041 | 72.50979 | 22279 ft | 335 kts | 330° |
| 2026-04-23 18:02 | 50.38117 | 72.49332 | 21864 ft | 332 kts | 330° |
| 2026-04-23 18:02 | 50.40147 | 72.47719 | 21457 ft | 330 kts | 330° |
| 2026-04-23 18:02 | 50.42182 | 72.46100 | 21050 ft | 327 kts | 330° |
| 2026-04-23 18:03 | 50.44185 | 72.44504 | 20647 ft | 325 kts | 330° |
| 2026-04-23 18:03 | 50.46199 | 72.42896 | 20242 ft | 323 kts | 330° |
| 2026-04-23 18:03 | 50.48178 | 72.41318 | 19845 ft | 320 kts | 330° |
| 2026-04-23 18:03 | 50.50167 | 72.39731 | 19447 ft | 318 kts | 329° |
| 2026-04-23 18:04 | 50.52110 | 72.38179 | 19054 ft | 316 kts | 329° |
| 2026-04-23 18:04 | 50.54066 | 72.36613 | 18658 ft | 314 kts | 329° |
| 2026-04-23 18:04 | 50.56010 | 72.35057 | 18265 ft | 312 kts | 329° |
| 2026-04-23 18:04 | 50.57935 | 72.33512 | 17878 ft | 311 kts | 328° |
| 2026-04-23 18:05 | 50.59854 | 72.31972 | 17485 ft | 310 kts | 328° |
| 2026-04-23 18:05 | 50.61748 | 72.30450 | 17093 ft | 309 kts | 328° |
| 2026-04-23 18:05 | 50.63664 | 72.28909 | 16694 ft | 308 kts | 328° |
| 2026-04-23 18:05 | 50.65549 | 72.27391 | 16298 ft | 307 kts | 328° |
| 2026-04-23 18:06 | 50.67438 | 72.25870 | 15908 ft | 306 kts | 328° |
| 2026-04-23 18:06 | 50.69319 | 72.24353 | 15512 ft | 305 kts | 328° |
| 2026-04-23 18:06 | 50.71219 | 72.22819 | 15115 ft | 304 kts | 328° |
| 2026-04-23 18:06 | 50.73095 | 72.21304 | 14718 ft | 304 kts | 328° |
| 2026-04-23 18:07 | 50.74957 | 72.19801 | 14325 ft | 303 kts | 328° |
| 2026-04-23 18:07 | 50.76823 | 72.18295 | 13932 ft | 302 kts | 328° |
| 2026-04-23 18:07 | 50.78702 | 72.16775 | 13540 ft | 301 kts | 328° |
| 2026-04-23 18:07 | 50.80556 | 72.15272 | 13155 ft | 300 kts | 328° |
| 2026-04-23 18:08 | 50.82408 | 72.13769 | 12770 ft | 299 kts | 328° |
| 2026-04-23 18:08 | 50.84233 | 72.12289 | 12395 ft | 298 kts | 328° |
| 2026-04-23 18:08 | 50.86064 | 72.10799 | 12014 ft | 297 kts | 329° |
| 2026-04-23 18:08 | 50.87910 | 72.09297 | 11634 ft | 295 kts | 329° |
| 2026-04-23 18:09 | 50.89716 | 72.07826 | 11263 ft | 294 kts | 329° |
| 2026-04-23 18:09 | 50.91523 | 72.06354 | 10896 ft | 292 kts | 329° |
| 2026-04-23 18:09 | 50.93294 | 72.04912 | 10642 ft | 284 kts | 329° |
| 2026-04-23 18:09 | 50.95010 | 72.03516 | 10501 ft | 273 kts | 329° |
| 2026-04-23 18:10 | 50.96690 | 72.02148 | 10247 ft | 268 kts | 329° |
| 2026-04-23 18:10 | 50.98329 | 72.00806 | 10002 ft | 269 kts | 329° |
| 2026-04-23 18:10 | 51.00010 | 71.99428 | 9910 ft | 271 kts | 329° |
| 2026-04-23 18:10 | 51.01660 | 71.98077 | 9641 ft | 268 kts | 329° |
| 2026-04-23 18:11 | 51.03325 | 71.96712 | 9227 ft | 268 kts | 329° |
| 2026-04-23 18:11 | 51.04977 | 71.95356 | 8825 ft | 267 kts | 330° |
| 2026-04-23 18:11 | 51.06612 | 71.94015 | 8448 ft | 266 kts | 330° |
| 2026-04-23 18:11 | 51.08249 | 71.92670 | 8068 ft | 264 kts | 330° |
| 2026-04-23 18:12 | 51.09875 | 71.91334 | 7609 ft | 266 kts | 331° |
| 2026-04-23 18:12 | 51.11514 | 71.89984 | 7175 ft | 267 kts | 331° |
| 2026-04-23 18:12 | 51.13168 | 71.88602 | 6784 ft | 266 kts | 329° |
| 2026-04-23 18:12 | 51.14667 | 71.86947 | 6414 ft | 263 kts | 320° |
| 2026-04-23 18:13 | 51.16002 | 71.84969 | 6073 ft | 260 kts | 315° |
| 2026-04-23 18:13 | 51.17268 | 71.82946 | 5747 ft | 258 kts | 315° |
| 2026-04-23 18:13 | 51.18505 | 71.80947 | 5422 ft | 255 kts | 315° |
| 2026-04-23 18:13 | 51.19691 | 71.78873 | 5248 ft | 245 kts | 303° |
| 2026-04-23 18:14 | 51.20130 | 71.76399 | 5168 ft | 234 kts | 268° |
| 2026-04-23 18:14 | 51.19661 | 71.73914 | 4897 ft | 239 kts | 238° |
| 2026-04-23 18:14 | 51.18542 | 71.72003 | 4720 ft | 236 kts | 225° |
| 2026-04-23 18:14 | 51.17350 | 71.70186 | 4558 ft | 235 kts | 227° |
| 2026-04-23 18:15 | 51.16187 | 71.68376 | 4418 ft | 234 kts | 227° |
| 2026-04-23 18:15 | 51.15036 | 71.66579 | 4283 ft | 234 kts | 227° |
| 2026-04-23 18:15 | 51.13876 | 71.64771 | 4015 ft | 234 kts | 226° |
| 2026-04-23 18:15 | 51.12741 | 71.63004 | 3699 ft | 222 kts | 226° |
| 2026-04-23 18:16 | 51.11678 | 71.61351 | 3522 ft | 203 kts | 226° |
| 2026-04-23 18:16 | 51.10719 | 71.59866 | 3425 ft | 180 kts | 226° |
| 2026-04-23 18:16 | 51.09848 | 71.58530 | 3091 ft | 169 kts | 226° |
| 2026-04-23 18:17 | 51.08290 | 71.56119 | 2498 ft | 144 kts | 229° |
| 2026-04-23 18:17 | 51.07614 | 71.55002 | 2264 ft | 140 kts | 229° |
| 2026-04-23 18:17 | 51.06935 | 71.53889 | 2090 ft | 140 kts | 228° |
| 2026-04-23 18:17 | 51.06235 | 71.52811 | 1962 ft | 139 kts | 227° |
| 2026-04-23 18:18 | 51.05537 | 71.51739 | 1846 ft | 139 kts | 227° |
| 2026-04-23 18:18 | 51.04855 | 71.50678 | 1648 ft | 139 kts | 227° |
| 2026-04-23 18:18 | 51.04162 | 71.49603 | 1429 ft | 138 kts | 227° |
| 2026-04-23 18:18 | 51.03482 | 71.48533 | 1266 ft | 137 kts | 227° |
| 2026-04-23 18:19 | 51.02817 | 71.47496 | 1175 ft | 129 kts | 227° |
| 2026-04-23 18:19 | 51.02273 | 71.46644 | 1174 ft | 86 kts | 224° |
| 2026-04-23 18:19 | 51.01967 | 71.46172 | 1174 ft | 35 kts | 226° |
| 2026-04-23 18:19 | 51.01831 | 71.45956 | 1174 ft | 26 kts | 225° |
| 2026-04-23 18:20 | 51.01704 | 71.45744 | 1174 ft | 21 kts | 241° |
| 2026-04-23 18:20 | 51.01756 | 71.45581 | 1174 ft | 16 kts | 313° |
| 2026-04-23 18:20 | 51.01847 | 71.45528 | 1174 ft | 15 kts | 41° |
| 2026-04-23 18:20 | 51.01924 | 71.45642 | 1174 ft | 15 kts | 45° |
| 2026-04-23 18:21 | 51.02000 | 71.45761 | 1174 ft | 15 kts | 45° |
| 2026-04-23 18:21 | 51.02081 | 71.45886 | 1174 ft | 17 kts | 45° |
| 2026-04-23 18:21 | 51.02172 | 71.46027 | 1174 ft | 18 kts | 45° |
| 2026-04-23 18:21 | 51.02268 | 71.46176 | 1174 ft | 20 kts | 44° |
| 2026-04-23 18:22 | 51.02379 | 71.46200 | 1174 ft | 17 kts | 317° |
| 2026-04-23 18:22 | 51.02475 | 71.46093 | 1174 ft | 16 kts | 354° |
| 2026-04-23 18:22 | 51.02583 | 71.46088 | 1174 ft | 9 kts | 356° |
| 2026-04-23 18:22 | 51.02616 | 71.46086 | 1174 ft | 0 kts | 359° |
| 2026-04-23 18:23 | 51.02617 | 71.46086 | 1174 ft | 0 kts | 359° |